Time;durP1;ratioP1;P1;durP2;ratioP2;P2;SDS_P1;SDS_P2;PMS_P1;PMS_P2;Temp;Humidity;BMP_temperature;BMP_pressure;BME280_temperature;BME280_humidity;BME280_pressure;Samples;Min_cycle;Max_cycle;Signal;HPM_P1;HPM_P2
2024/03/30 00:01:23;;;;;;;1.48;0.80;;;;;;;;;;5054673;28;20028;-81
2024/03/30 00:03:48;;;;;;;1.40;0.90;;;;;;;;;;5052541;28;20016;-81
2024/03/30 00:06:14;;;;;;;1.42;0.77;;;;;;;;;;5043447;28;20472;-81
2024/03/30 00:08:39;;;;;;;1.40;0.80;;;;;;;;;;5054437;28;20472;-81
2024/03/30 00:11:05;;;;;;;2.33;0.98;;;;;;;;;;5037641;28;20021;-81
2024/03/30 00:13:30;;;;;;;2.10;0.90;;;;;;;;;;5057947;28;20025;-82
2024/03/30 00:15:56;;;;;;;1.67;1.00;;;;;;;;;;5061083;28;20031;-81
2024/03/30 00:18:22;;;;;;;1.40;0.80;;;;;;;;;;5041281;28;20467;-81
2024/03/30 00:20:49;;;;;;;1.38;0.80;;;;;;;;;;5056423;28;20036;-81
2024/03/30 00:23:15;;;;;;;1.52;0.90;;;;;;;;;;5060079;28;20123;-80
2024/03/30 00:25:41;;;;;;;1.55;0.88;;;;;;;;;;5043250;28;20112;-80
2024/03/30 00:28:06;;;;;;;1.40;0.95;;;;;;;;;;5041866;28;20044;-80
2024/03/30 00:30:36;;;;;;;2.67;0.98;;;;;;;;;;5034592;28;20033;-81
2024/03/30 00:33:02;;;;;;;2.20;0.98;;;;;;;;;;5035277;28;20021;-81
2024/03/30 00:35:28;;;;;;;1.58;0.90;;;;;;;;;;5037466;28;20029;-81
2024/03/30 00:37:54;;;;;;;2.45;1.00;;;;;;;;;;5051709;28;20529;-82
2024/03/30 00:40:21;;;;;;;2.83;1.17;;;;;;;;;;5054982;28;20483;-82
2024/03/30 00:42:47;;;;;;;2.08;0.90;;;;;;;;;;5037100;28;20047;-81
2024/03/30 00:45:12;;;;;;;1.65;0.90;;;;;;;;;;5038070;28;20422;-82
2024/03/30 00:47:38;;;;;;;1.95;0.95;;;;;;;;;;5030800;28;20017;-80
2024/03/30 00:50:04;;;;;;;1.60;0.82;;;;;;;;;;5029465;28;21527;-81
2024/03/30 00:52:29;;;;;;;1.17;0.80;;;;;;;;;;5039153;28;20047;-81
2024/03/30 00:54:55;;;;;;;2.25;0.90;;;;;;;;;;5036628;28;20033;-81
2024/03/30 00:57:22;;;;;;;1.92;0.80;;;;;;;;;;5038789;28;20360;-81
2024/03/30 00:59:47;;;;;;;2.08;1.08;;;;;;;;;;5036344;28;20028;-81
2024/03/30 01:02:13;;;;;;;1.25;0.80;;;;;;;;;;5039004;28;20029;-81
2024/03/30 01:04:38;;;;;;;1.25;0.80;;;;;;;;;;5036583;28;20613;-81
2024/03/30 01:07:04;;;;;;;1.33;0.80;;;;;;;;;;5037045;28;20056;-81
2024/03/30 01:09:29;;;;;;;2.10;1.00;;;;;;;;;;5039937;28;20439;-81
2024/03/30 01:11:55;;;;;;;4.78;1.10;;;;;;;;;;5034399;28;20060;-81
2024/03/30 01:14:25;;;;;;;1.35;0.95;;;;;;;;;;5038247;28;20047;-82
2024/03/30 01:16:51;;;;;;;2.35;0.95;;;;;;;;;;5040401;28;20103;-81
2024/03/30 01:19:17;;;;;;;2.72;1.15;;;;;;;;;;5058683;28;20059;-81
2024/03/30 01:21:42;;;;;;;1.70;1.00;;;;;;;;;;5039362;28;20037;-81
2024/03/30 01:24:08;;;;;;;1.45;0.90;;;;;;;;;;5034306;28;20052;-81
2024/03/30 01:26:38;;;;;;;2.28;0.90;;;;;;;;;;5040687;28;20032;-81
2024/03/30 01:29:07;;;;;;;2.63;1.10;;;;;;;;;;5038699;28;20467;-81
2024/03/30 01:31:33;;;;;;;2.05;1.05;;;;;;;;;;5041937;28;20024;-81
2024/03/30 01:33:59;;;;;;;1.52;0.90;;;;;;;;;;5056014;28;20025;-82
2024/03/30 01:36:24;;;;;;;2.40;1.00;;;;;;;;;;5037906;28;20123;-81
2024/03/30 01:38:49;;;;;;;1.55;0.90;;;;;;;;;;5041831;28;20115;-81
2024/03/30 01:41:15;;;;;;;2.10;1.10;;;;;;;;;;5039836;28;20060;-81
2024/03/30 01:43:41;;;;;;;1.52;0.90;;;;;;;;;;5038621;28;20023;-81
2024/03/30 01:46:06;;;;;;;1.40;0.90;;;;;;;;;;5040295;28;20052;-82
2024/03/30 01:48:33;;;;;;;1.58;0.80;;;;;;;;;;5033541;28;20192;-81
2024/03/30 01:50:58;;;;;;;1.25;0.80;;;;;;;;;;5037517;28;20428;-81
2024/03/30 01:53:31;;;;;;;1.35;0.90;;;;;;;;;;5039159;28;20082;-80
2024/03/30 01:55:56;;;;;;;1.95;0.95;;;;;;;;;;5043393;28;20016;-81
2024/03/30 01:58:24;;;;;;;1.73;1.00;;;;;;;;;;5058950;28;20032;-81
2024/03/30 02:00:52;;;;;;;1.60;1.10;;;;;;;;;;5056986;28;20105;-81
2024/03/30 02:03:21;;;;;;;1.58;1.00;;;;;;;;;;5042557;28;21529;-81
2024/03/30 02:05:48;;;;;;;1.60;0.93;;;;;;;;;;5054227;28;20479;-81
2024/03/30 02:08:13;;;;;;;1.92;1.00;;;;;;;;;;5039380;28;20196;-81
2024/03/30 02:10:40;;;;;;;2.47;0.90;;;;;;;;;;5036559;28;20115;-81
2024/03/30 02:13:06;;;;;;;2.00;1.00;;;;;;;;;;5038315;28;20385;-81
2024/03/30 02:15:32;;;;;;;2.05;0.98;;;;;;;;;;5048677;28;20029;-81
2024/03/30 02:17:58;;;;;;;2.15;1.02;;;;;;;;;;5038364;28;20436;-81
2024/03/30 02:20:24;;;;;;;1.90;1.10;;;;;;;;;;5035549;28;20024;-80
2024/03/30 02:22:51;;;;;;;1.50;0.90;;;;;;;;;;5040596;28;20067;-80
2024/03/30 02:25:18;;;;;;;1.60;0.98;;;;;;;;;;5056073;28;20035;-80
2024/03/30 02:27:44;;;;;;;2.55;1.02;;;;;;;;;;5038295;28;20052;-80
2024/03/30 02:30:13;;;;;;;3.45;1.10;;;;;;;;;;5054234;28;20071;-80
2024/03/30 02:32:38;;;;;;;1.70;1.10;;;;;;;;;;5038857;28;20371;-80
2024/03/30 02:35:06;;;;;;;2.22;1.15;;;;;;;;;;5040684;28;20031;-81
2024/03/30 02:37:32;;;;;;;2.00;1.20;;;;;;;;;;5034224;28;20155;-85
2024/03/30 02:39:57;;;;;;;5.15;1.08;;;;;;;;;;5052390;28;20115;-85
2024/03/30 02:42:23;;;;;;;2.47;1.10;;;;;;;;;;5037909;28;20039;-85
2024/03/30 02:44:48;;;;;;;2.65;1.38;;;;;;;;;;5031424;28;20048;-84
2024/03/30 02:47:13;;;;;;;2.92;1.20;;;;;;;;;;5048006;28;20032;-84
2024/03/30 02:49:39;;;;;;;2.60;1.23;;;;;;;;;;5035795;28;20028;-85
2024/03/30 02:52:04;;;;;;;1.90;1.10;;;;;;;;;;5036256;28;20017;-84
2024/03/30 02:54:30;;;;;;;1.58;1.00;;;;;;;;;;5054202;28;20029;-81
2024/03/30 02:56:55;;;;;;;2.05;1.20;;;;;;;;;;5053332;28;20044;-80
2024/03/30 02:59:21;;;;;;;3.05;1.42;;;;;;;;;;5051889;28;20051;-81
2024/03/30 03:01:46;;;;;;;2.00;1.10;;;;;;;;;;5053121;28;20028;-79
2024/03/30 03:04:11;;;;;;;2.20;1.13;;;;;;;;;;5050183;28;20394;-78
2024/03/30 03:06:37;;;;;;;1.55;1.10;;;;;;;;;;5033486;28;20037;-78
2024/03/30 03:09:05;;;;;;;1.77;1.30;;;;;;;;;;5038101;28;20574;-78
2024/03/30 03:11:30;;;;;;;3.25;1.50;;;;;;;;;;5036560;28;20024;-79
2024/03/30 03:13:56;;;;;;;2.47;1.20;;;;;;;;;;5045508;28;20041;-79
2024/03/30 03:16:21;;;;;;;3.33;1.20;;;;;;;;;;5036423;28;20025;-79
2024/03/30 03:18:49;;;;;;;1.95;1.10;;;;;;;;;;5037670;28;20399;-79
2024/03/30 03:21:14;;;;;;;2.22;1.30;;;;;;;;;;5054469;28;20043;-79
2024/03/30 03:23:40;;;;;;;2.25;1.40;;;;;;;;;;5051801;28;20036;-79
2024/03/30 03:26:06;;;;;;;3.63;1.40;;;;;;;;;;5037109;28;20391;-79
2024/03/30 03:28:31;;;;;;;2.58;1.45;;;;;;;;;;5037717;28;20025;-81
2024/03/30 03:30:57;;;;;;;2.55;1.30;;;;;;;;;;5037233;28;20032;-80
2024/03/30 03:33:22;;;;;;;2.03;1.35;;;;;;;;;;5037284;28;20052;-80
2024/03/30 03:35:48;;;;;;;2.80;1.23;;;;;;;;;;5036920;28;20048;-80
2024/03/30 03:38:13;;;;;;;2.28;1.23;;;;;;;;;;5033261;28;20473;-86
2024/03/30 03:40:39;;;;;;;2.13;1.20;;;;;;;;;;5034258;28;20040;-83
2024/03/30 03:43:04;;;;;;;2.30;1.50;;;;;;;;;;5032566;28;20025;-83
2024/03/30 03:45:30;;;;;;;5.70;1.70;;;;;;;;;;5052920;28;20071;-81
2024/03/30 03:47:55;;;;;;;3.22;1.70;;;;;;;;;;5031212;28;20111;-83
2024/03/30 03:50:20;;;;;;;2.75;1.60;;;;;;;;;;5034569;28;20067;-82
2024/03/30 03:52:46;;;;;;;3.45;1.75;;;;;;;;;;5048116;28;20036;-83
2024/03/30 03:55:11;;;;;;;6.50;1.73;;;;;;;;;;5032772;28;20467;-80
2024/03/30 03:57:37;;;;;;;3.40;1.70;;;;;;;;;;5051486;28;20021;-80
2024/03/30 04:00:03;;;;;;;2.47;1.58;;;;;;;;;;5036957;28;20480;-80
2024/03/30 04:02:28;;;;;;;2.67;1.60;;;;;;;;;;5051072;28;20070;-80
2024/03/30 04:04:54;;;;;;;2.33;1.50;;;;;;;;;;5035285;28;20094;-81
2024/03/30 04:07:20;;;;;;;3.67;1.80;;;;;;;;;;5034702;28;20020;-83
2024/03/30 04:09:45;;;;;;;2.17;1.70;;;;;;;;;;5035117;28;20047;-77
2024/03/30 04:12:11;;;;;;;3.80;1.80;;;;;;;;;;5053507;28;20037;-78
2024/03/30 04:14:36;;;;;;;2.30;1.58;;;;;;;;;;5049878;28;20024;-78
2024/03/30 04:17:02;;;;;;;3.38;1.50;;;;;;;;;;5051535;28;20086;-77
2024/03/30 04:19:27;;;;;;;2.35;1.88;;;;;;;;;;5050329;28;20062;-77
2024/03/30 04:21:56;;;;;;;3.33;1.60;;;;;;;;;;5033972;28;20460;-77
2024/03/30 04:24:22;;;;;;;3.50;2.00;;;;;;;;;;5053813;28;20031;-78
2024/03/30 04:26:47;;;;;;;2.95;1.80;;;;;;;;;;5034112;28;20491;-78
2024/03/30 04:29:13;;;;;;;4.18;2.10;;;;;;;;;;5049912;28;20183;-79
2024/03/30 04:31:44;;;;;;;2.40;1.85;;;;;;;;;;5037460;28;20396;-80
2024/03/30 04:34:10;;;;;;;3.47;2.17;;;;;;;;;;5032695;28;20035;-78
2024/03/30 04:36:35;;;;;;;2.92;2.20;;;;;;;;;;5035849;28;20893;-77
2024/03/30 04:39:00;;;;;;;3.15;2.10;;;;;;;;;;5035704;28;20036;-78
2024/03/30 04:41:26;;;;;;;3.58;2.30;;;;;;;;;;5052634;28;20033;-78
2024/03/30 04:43:51;;;;;;;3.30;2.20;;;;;;;;;;5030420;28;20035;-79
2024/03/30 04:46:17;;;;;;;5.18;2.30;;;;;;;;;;5037239;28;20029;-77
2024/03/30 04:48:45;;;;;;;3.33;2.08;;;;;;;;;;5035888;28;20445;-78
2024/03/30 04:51:10;;;;;;;3.22;2.33;;;;;;;;;;5034276;28;20087;-78
2024/03/30 04:53:35;;;;;;;3.72;2.25;;;;;;;;;;5039492;28;20477;-79
2024/03/30 04:56:08;;;;;;;3.33;2.40;;;;;;;;;;5035952;28;20107;-78
2024/03/30 04:58:34;;;;;;;3.25;2.20;;;;;;;;;;5047889;28;20548;-79
2024/03/30 05:01:05;;;;;;;3.30;2.50;;;;;;;;;;5050119;28;20120;-78
2024/03/30 05:03:30;;;;;;;3.22;2.63;;;;;;;;;;5041143;28;20933;-78
2024/03/30 05:05:56;;;;;;;6.85;2.78;;;;;;;;;;5054132;28;20039;-78
2024/03/30 05:08:22;;;;;;;3.75;2.72;;;;;;;;;;5040218;28;20033;-78
2024/03/30 05:10:52;;;;;;;4.50;2.60;;;;;;;;;;5037428;28;20028;-77
2024/03/30 05:13:18;;;;;;;3.88;2.72;;;;;;;;;;5038532;28;20037;-78
2024/03/30 05:15:44;;;;;;;3.97;3.08;;;;;;;;;;5051254;28;20411;-78
2024/03/30 05:18:10;;;;;;;4.20;3.22;;;;;;;;;;5039300;28;20039;-79
2024/03/30 05:20:53;;;;;;;4.45;3.45;;;;;;;;;;5039696;28;20036;-79
2024/03/30 05:23:40;;;;;;;4.50;3.60;;;;;;;;;;5045919;28;20076;-80
2024/03/30 05:26:06;;;;;;;4.50;3.58;;;;;;;;;;5035191;28;20490;-81
2024/03/30 05:28:34;;;;;;;5.30;3.60;;;;;;;;;;5052439;28;20032;-79
2024/03/30 05:31:08;;;;;;;5.10;4.03;;;;;;;;;;5054376;28;20025;-78
2024/03/30 05:33:34;;;;;;;4.75;3.45;;;;;;;;;;5027359;28;21060;-79
2024/03/30 05:35:59;;;;;;;5.35;4.05;;;;;;;;;;5053558;28;20056;-79
2024/03/30 05:38:25;;;;;;;6.05;4.30;;;;;;;;;;5048619;28;20467;-78
2024/03/30 05:40:51;;;;;;;5.30;4.40;;;;;;;;;;5030767;28;20035;-79
2024/03/30 05:43:17;;;;;;;5.47;4.50;;;;;;;;;;5045977;28;20021;-78
2024/03/30 05:45:47;;;;;;;5.60;4.53;;;;;;;;;;5035127;28;20377;-79
2024/03/30 05:48:19;;;;;;;5.97;4.43;;;;;;;;;;5060400;28;20043;-79
2024/03/30 05:50:45;;;;;;;6.53;4.60;;;;;;;;;;5037424;28;20684;-78
2024/03/30 05:53:10;;;;;;;5.50;4.00;;;;;;;;;;5039811;28;20024;-78
2024/03/30 05:55:36;;;;;;;5.90;4.35;;;;;;;;;;5036336;28;20485;-79
2024/03/30 05:58:09;;;;;;;6.00;4.30;;;;;;;;;;5051473;28;20028;-79
2024/03/30 06:00:34;;;;;;;;;;;;;;;;;;5037950;28;20467;-79
2024/03/30 06:03:00;;;;;;;5.85;4.30;;;;;;;;;;5051374;28;19923;-79
2024/03/30 06:05:26;;;;;;;6.20;4.55;;;;;;;;;;5037048;28;20519;-79
2024/03/30 06:07:51;;;;;;;7.00;4.70;;;;;;;;;;5037588;28;20040;-78
2024/03/30 06:10:19;;;;;;;6.35;5.13;;;;;;;;;;5055983;28;20053;-78
2024/03/30 06:12:45;;;;;;;6.97;5.18;;;;;;;;;;5048812;28;20120;-78
2024/03/30 06:15:11;;;;;;;6.43;4.97;;;;;;;;;;5036610;28;20129;-78
2024/03/30 06:17:38;;;;;;;6.45;4.70;;;;;;;;;;5039188;28;20070;-78
2024/03/30 06:20:07;;;;;;;5.65;4.72;;;;;;;;;;5041808;28;20029;-79
2024/03/30 06:22:33;;;;;;;5.95;4.70;;;;;;;;;;5056029;28;20025;-78
2024/03/30 06:24:59;;;;;;;6.15;4.85;;;;;;;;;;5042931;28;20029;-79
2024/03/30 06:27:24;;;;;;;6.88;4.78;;;;;;;;;;5036917;28;20017;-79
2024/03/30 06:29:50;;;;;;;7.22;4.90;;;;;;;;;;5038707;28;20048;-79
2024/03/30 06:32:15;;;;;;;6.40;4.75;;;;;;;;;;5051190;28;20025;-78
2024/03/30 06:34:41;;;;;;;6.90;5.18;;;;;;;;;;5035367;28;20025;-79
2024/03/30 06:37:08;;;;;;;5.82;4.25;;;;;;;;;;5035967;28;20479;-79
2024/03/30 06:45:02;;;;;;;5.60;4.25;;;;;;;;;;5050014;28;20066;-83
2024/03/30 06:47:27;;;;;;;6.35;4.50;;;;;;;;;;5035475;28;20040;-84
2024/03/30 06:49:53;;;;;;;5.80;4.60;;;;;;;;;;5032531;28;20555;-83
2024/03/30 06:52:18;;;;;;;5.80;4.10;;;;;;;;;;5052670;28;21104;-84
2024/03/30 06:54:44;;;;;;;7.93;4.35;;;;;;;;;;5052459;28;20048;-83
2024/03/30 06:57:09;;;;;;;5.82;4.07;;;;;;;;;;5035321;28;20020;-84
2024/03/30 06:59:34;;;;;;;6.88;4.60;;;;;;;;;;5033339;28;20049;-79
2024/03/30 07:02:03;;;;;;;5.95;4.45;;;;;;;;;;5034292;28;20455;-79
2024/03/30 07:04:28;;;;;;;5.32;3.95;;;;;;;;;;5036031;28;20466;-78
2024/03/30 07:06:54;;;;;;;5.57;4.15;;;;;;;;;;5038066;28;20032;-80
2024/03/30 07:09:22;;;;;;;6.60;4.30;;;;;;;;;;5035483;28;20137;-80
2024/03/30 07:11:48;;;;;;;5.10;4.22;;;;;;;;;;5055562;28;20104;-79
2024/03/30 07:14:14;;;;;;;6.43;4.50;;;;;;;;;;5039732;28;20108;-78
2024/03/30 07:16:39;;;;;;;5.32;4.20;;;;;;;;;;5034575;28;20064;-79
2024/03/30 07:19:05;;;;;;;5.55;4.20;;;;;;;;;;5037933;28;20437;-79
2024/03/30 07:21:32;;;;;;;7.30;4.70;;;;;;;;;;5041914;28;20113;-78
2024/03/30 07:23:58;;;;;;;6.95;4.40;;;;;;;;;;5033103;28;20094;-79
2024/03/30 07:26:23;;;;;;;6.68;4.80;;;;;;;;;;5035168;28;20059;-79
2024/03/30 07:28:49;;;;;;;7.97;4.95;;;;;;;;;;5032509;28;20035;-79
2024/03/30 07:31:14;;;;;;;7.22;4.80;;;;;;;;;;5036384;28;20028;-78
2024/03/30 07:33:40;;;;;;;5.93;4.43;;;;;;;;;;5051498;28;20058;-78
2024/03/30 07:36:05;;;;;;;6.50;4.82;;;;;;;;;;5035703;28;20056;-80
2024/03/30 07:38:35;;;;;;;7.05;4.57;;;;;;;;;;5034855;28;20037;-81
2024/03/30 07:41:00;;;;;;;7.75;5.88;;;;;;;;;;5032396;28;20036;-80
2024/03/30 07:43:26;;;;;;;6.72;5.10;;;;;;;;;;5046952;28;20418;-79
2024/03/30 07:45:52;;;;;;;8.40;5.70;;;;;;;;;;5050065;28;20078;-78
2024/03/30 07:48:18;;;;;;;7.95;5.80;;;;;;;;;;5053272;28;20024;-79
2024/03/30 07:50:43;;;;;;;7.28;5.70;;;;;;;;;;5049705;28;20472;-79
2024/03/30 07:53:09;;;;;;;7.85;5.88;;;;;;;;;;5034320;28;20408;-79
2024/03/30 07:55:34;;;;;;;8.65;5.63;;;;;;;;;;5052374;28;20043;-78
2024/03/30 07:58:00;;;;;;;9.35;6.07;;;;;;;;;;5036415;28;20035;-77
2024/03/30 08:00:25;;;;;;;9.05;5.78;;;;;;;;;;5049168;28;20029;-77
2024/03/30 08:02:51;;;;;;;7.70;5.80;;;;;;;;;;5036727;28;20032;-78
2024/03/30 08:05:17;;;;;;;7.47;5.68;;;;;;;;;;5032937;28;20025;-78
2024/03/30 08:07:43;;;;;;;8.00;5.95;;;;;;;;;;5047358;28;20036;-78
2024/03/30 08:10:09;;;;;;;8.93;6.43;;;;;;;;;;5049912;28;20036;-77
2024/03/30 08:12:34;;;;;;;8.65;6.63;;;;;;;;;;5036232;28;20017;-78
2024/03/30 08:15:00;;;;;;;8.38;6.03;;;;;;;;;;5042575;28;20028;-78
2024/03/30 08:17:26;;;;;;;10.32;6.63;;;;;;;;;;5033371;28;20021;-77
2024/03/30 08:19:51;;;;;;;9.45;6.93;;;;;;;;;;5058588;28;20044;-78
2024/03/30 08:22:17;;;;;;;9.00;6.95;;;;;;;;;;5038307;28;20028;-83
2024/03/30 08:24:42;;;;;;;8.77;7.05;;;;;;;;;;5043131;28;20029;-84
2024/03/30 08:27:10;;;;;;;10.48;7.55;;;;;;;;;;5031378;28;20104;-84
2024/03/30 08:29:36;;;;;;;10.45;7.82;;;;;;;;;;5038915;28;20035;-84
2024/03/30 08:32:03;;;;;;;11.85;7.57;;;;;;;;;;5054943;28;20028;-79
2024/03/30 08:34:29;;;;;;;10.57;7.50;;;;;;;;;;5041609;28;20032;-79
2024/03/30 08:36:58;;;;;;;11.00;7.32;;;;;;;;;;5051425;28;20082;-78
2024/03/30 08:39:25;;;;;;;9.98;7.35;;;;;;;;;;5055562;28;20427;-78
2024/03/30 08:41:53;;;;;;;10.57;7.68;;;;;;;;;;5028109;28;20033;-78
2024/03/30 08:44:18;;;;;;;9.48;7.40;;;;;;;;;;5049817;28;20029;-84
2024/03/30 08:46:44;;;;;;;10.45;8.00;;;;;;;;;;5033411;28;20461;-84
2024/03/30 08:49:12;;;;;;;10.00;8.02;;;;;;;;;;5061009;28;20032;-79
2024/03/30 08:51:38;;;;;;;9.80;7.40;;;;;;;;;;5033026;28;20040;-78
2024/03/30 08:54:04;;;;;;;9.18;7.55;;;;;;;;;;5030254;28;20028;-77
2024/03/30 08:56:33;;;;;;;9.63;7.35;;;;;;;;;;5035378;28;20040;-83
2024/03/30 08:58:59;;;;;;;9.55;7.75;;;;;;;;;;5036182;28;20033;-77
2024/03/30 09:01:24;;;;;;;11.52;7.85;;;;;;;;;;5036577;28;20173;-78
2024/03/30 09:03:50;;;;;;;11.35;8.80;;;;;;;;;;5036384;28;20027;-78
2024/03/30 09:06:16;;;;;;;11.73;7.97;;;;;;;;;;5036051;28;20056;-79
2024/03/30 09:08:44;;;;;;;10.10;8.07;;;;;;;;;;5045678;28;20029;-78
2024/03/30 09:11:10;;;;;;;10.88;7.85;;;;;;;;;;5031682;28;20575;-79
2024/03/30 09:13:37;;;;;;;11.15;7.72;;;;;;;;;;5028762;28;20039;-79
2024/03/30 09:16:03;;;;;;;11.20;7.57;;;;;;;;;;5036899;28;20021;-79
2024/03/30 09:18:29;;;;;;;11.65;7.50;;;;;;;;;;5039450;28;20036;-79
2024/03/30 09:20:55;;;;;;;9.82;7.57;;;;;;;;;;5029729;28;20033;-80
2024/03/30 09:23:21;;;;;;;11.18;7.65;;;;;;;;;;5039898;28;20035;-79
2024/03/30 09:25:46;;;;;;;11.73;8.38;;;;;;;;;;5030297;28;20037;-78
2024/03/30 09:28:11;;;;;;;11.30;7.93;;;;;;;;;;5049903;28;20041;-78
2024/03/30 09:30:37;;;;;;;12.77;7.82;;;;;;;;;;5051019;28;20396;-78
2024/03/30 09:33:02;;;;;;;12.52;8.35;;;;;;;;;;5042546;28;20032;-78
2024/03/30 09:35:28;;;;;;;9.35;7.45;;;;;;;;;;5033771;28;20171;-79
2024/03/30 09:37:53;;;;;;;12.02;7.82;;;;;;;;;;5044133;28;20036;-78
2024/03/30 09:40:19;;;;;;;10.48;7.90;;;;;;;;;;5039276;28;20035;-78
2024/03/30 09:42:47;;;;;;;15.07;8.10;;;;;;;;;;5051836;28;20029;-78
2024/03/30 09:45:13;;;;;;;10.75;7.40;;;;;;;;;;5031231;28;20102;-78
2024/03/30 09:47:42;;;;;;;10.57;7.03;;;;;;;;;;5034634;28;20487;-80
2024/03/30 09:50:09;;;;;;;10.50;7.70;;;;;;;;;;5037631;28;20104;-78
2024/03/30 09:52:39;;;;;;;11.82;7.45;;;;;;;;;;5034523;28;20400;-78
2024/03/30 09:55:10;;;;;;;9.93;6.50;;;;;;;;;;5041801;28;20086;-78
2024/03/30 09:57:39;;;;;;;8.63;6.30;;;;;;;;;;5035710;28;20028;-79
2024/03/30 10:00:06;;;;;;;12.75;7.85;;;;;;;;;;5035309;28;20024;-78
2024/03/30 10:02:31;;;;;;;9.88;8.05;;;;;;;;;;5035008;28;20025;-78
2024/03/30 10:04:57;;;;;;;9.77;7.47;;;;;;;;;;5037116;28;20040;-78
2024/03/30 10:08:08;;;;;;;10.60;8.32;;;;;;;;;;5032105;28;20032;-78
2024/03/30 10:10:35;;;;;;;10.83;7.77;;;;;;;;;;4934719;29;20570;-78
2024/03/30 10:13:04;;;;;;;9.98;7.60;;;;;;;;;;4989432;28;20056;-78
2024/03/30 10:15:45;;;;;;;12.13;7.70;;;;;;;;;;5028093;28;20021;-79
2024/03/30 10:18:12;;;;;;;13.02;7.88;;;;;;;;;;5051236;28;20020;-79
2024/03/30 10:20:37;;;;;;;12.52;7.70;;;;;;;;;;5058400;28;20040;-78
2024/03/30 10:23:03;;;;;;;10.68;7.10;;;;;;;;;;5030350;28;20523;-78
2024/03/30 10:25:28;;;;;;;12.15;7.60;;;;;;;;;;5046400;28;20028;-82
2024/03/30 10:27:54;;;;;;;10.55;7.43;;;;;;;;;;5043904;28;20025;-82
2024/03/30 10:30:19;;;;;;;10.30;7.47;;;;;;;;;;5036988;28;20029;-81
2024/03/30 10:32:46;;;;;;;11.18;7.43;;;;;;;;;;5051465;28;20031;-82
2024/03/30 10:35:14;;;;;;;10.88;8.23;;;;;;;;;;5047067;28;20025;-79
2024/03/30 10:37:40;;;;;;;14.52;9.13;;;;;;;;;;5029594;28;20025;-78
2024/03/30 10:40:10;;;;;;;14.18;8.20;;;;;;;;;;5031434;28;20024;-79
2024/03/30 10:42:38;;;;;;;11.25;8.05;;;;;;;;;;5026608;28;20543;-79
2024/03/30 10:45:04;;;;;;;16.00;8.60;;;;;;;;;;5037341;28;20499;-79
2024/03/30 10:47:30;;;;;;;13.43;8.70;;;;;;;;;;5045236;28;20038;-79
2024/03/30 10:49:59;;;;;;;14.55;8.50;;;;;;;;;;5038427;28;20024;-79
2024/03/30 10:52:25;;;;;;;16.15;9.05;;;;;;;;;;5053174;28;20495;-79
2024/03/30 10:54:52;;;;;;;14.00;8.50;;;;;;;;;;5024698;28;20040;-79
2024/03/30 10:57:18;;;;;;;16.95;9.40;;;;;;;;;;5036040;28;20035;-79
2024/03/30 10:59:45;;;;;;;14.35;9.20;;;;;;;;;;5045930;28;20037;-79
2024/03/30 11:02:20;;;;;;;15.43;9.25;;;;;;;;;;5029159;28;20035;-79
2024/03/30 11:04:45;;;;;;;12.82;9.82;;;;;;;;;;5036198;28;20043;-79
2024/03/30 11:07:12;;;;;;;14.93;9.18;;;;;;;;;;5016422;28;20025;-82
2024/03/30 11:09:41;;;;;;;20.63;9.73;;;;;;;;;;5029591;28;20037;-80
2024/03/30 11:12:11;;;;;;;16.90;9.38;;;;;;;;;;5026367;28;20385;-79
2024/03/30 11:14:37;;;;;;;15.13;7.75;;;;;;;;;;5029626;28;20067;-80
2024/03/30 11:17:13;;;;;;;15.70;8.20;;;;;;;;;;5031679;28;20524;-79
2024/03/30 11:19:46;;;;;;;16.50;8.27;;;;;;;;;;5055362;28;20051;-79
2024/03/30 11:22:53;;;;;;;19.60;9.27;;;;;;;;;;5034776;28;20087;-79
2024/03/30 11:25:24;;;;;;;18.98;8.30;;;;;;;;;;5027252;28;20033;-81
2024/03/30 11:27:54;;;;;;;21.05;8.18;;;;;;;;;;5039389;28;20090;-81
2024/03/30 11:30:41;;;;;;;15.85;8.25;;;;;;;;;;5051857;28;20544;-81
2024/03/30 11:34:02;;;;;;;16.38;7.32;;;;;;;;;;5029020;28;20045;-82
2024/03/30 11:36:40;;;;;;;15.27;7.65;;;;;;;;;;5037509;28;20607;-82
2024/03/30 11:39:14;;;;;;;24.70;8.40;;;;;;;;;;5027626;28;20555;-82
2024/03/30 11:41:44;;;;;;;15.15;6.93;;;;;;;;;;5030549;28;20040;-82
2024/03/30 11:44:10;;;;;;;15.73;7.50;;;;;;;;;;5023856;28;20036;-82
2024/03/30 11:46:40;;;;;;;20.80;7.32;;;;;;;;;;5028547;28;20140;-82
2024/03/30 11:49:10;;;;;;;17.48;7.00;;;;;;;;;;5029120;28;20124;-82
2024/03/30 11:51:40;;;;;;;16.88;6.47;;;;;;;;;;5046928;28;20037;-82
2024/03/30 11:54:22;;;;;;;19.02;6.90;;;;;;;;;;5035977;28;20049;-82
2024/03/30 11:57:14;;;;;;;16.90;7.60;;;;;;;;;;5036606;28;20078;-82
2024/03/30 11:59:41;;;;;;;19.00;7.07;;;;;;;;;;5034991;28;20064;-82
2024/03/30 12:02:11;;;;;;;16.52;7.45;;;;;;;;;;5028995;28;20028;-81
2024/03/30 12:04:41;;;;;;;17.67;7.20;;;;;;;;;;5036615;28;20862;-79
2024/03/30 12:07:08;;;;;;;17.17;6.95;;;;;;;;;;5022844;28;20119;-80
2024/03/30 12:09:33;;;;;;;14.30;6.10;;;;;;;;;;5027257;28;20032;-81
2024/03/30 12:12:12;;;;;;;16.40;6.88;;;;;;;;;;5033817;28;20029;-82
2024/03/30 12:14:40;;;;;;;14.95;7.35;;;;;;;;;;5045466;28;20048;-81
2024/03/30 12:17:07;;;;;;;13.20;7.18;;;;;;;;;;5005704;28;20032;-82
2024/03/30 12:19:34;;;;;;;12.60;7.15;;;;;;;;;;5029002;28;20518;-81
2024/03/30 12:21:59;;;;;;;13.75;7.35;;;;;;;;;;5045016;28;20033;-81
2024/03/30 12:24:25;;;;;;;14.35;7.88;;;;;;;;;;5012097;28;20048;-81
2024/03/30 12:26:52;;;;;;;14.27;7.50;;;;;;;;;;5027647;28;20066;-81
2024/03/30 12:29:17;;;;;;;20.60;8.65;;;;;;;;;;5036380;28;20452;-83
2024/03/30 12:31:43;;;;;;;18.50;8.50;;;;;;;;;;5025434;28;20036;-80
2024/03/30 12:34:11;;;;;;;16.48;8.38;;;;;;;;;;5036426;28;20142;-84
2024/03/30 12:36:37;;;;;;;11.85;8.02;;;;;;;;;;5046042;28;20028;-84
2024/03/30 12:39:03;;;;;;;12.68;8.38;;;;;;;;;;5032340;28;20515;-81
2024/03/30 12:41:29;;;;;;;12.88;8.32;;;;;;;;;;5018648;28;20048;-84
2024/03/30 12:44:03;;;;;;;15.88;8.80;;;;;;;;;;5035959;28;20064;-83
2024/03/30 12:46:29;;;;;;;17.00;9.32;;;;;;;;;;5042301;28;20734;-82
2024/03/30 12:49:01;;;;;;;11.90;7.85;;;;;;;;;;5033168;28;20123;-83
2024/03/30 12:51:27;;;;;;;12.17;8.03;;;;;;;;;;5012905;28;20036;-83
2024/03/30 12:53:54;;;;;;;13.25;7.70;;;;;;;;;;5039391;28;20880;-83
2024/03/30 12:56:24;;;;;;;12.38;7.25;;;;;;;;;;5025797;28;20025;-80
2024/03/30 12:58:50;;;;;;;12.80;7.53;;;;;;;;;;5025751;28;20032;-81
2024/03/30 13:01:17;;;;;;;13.15;8.48;;;;;;;;;;5035182;28;20028;-81
2024/03/30 13:03:43;;;;;;;12.35;8.43;;;;;;;;;;5028616;28;20064;-80
2024/03/30 13:06:10;;;;;;;14.90;8.95;;;;;;;;;;5033532;28;20068;-81
2024/03/30 13:09:05;;;;;;;12.23;8.80;;;;;;;;;;5025804;28;20083;-82
2024/03/30 13:11:30;;;;;;;11.63;7.88;;;;;;;;;;5028056;28;20476;-80
2024/03/30 13:13:56;;;;;;;11.25;8.23;;;;;;;;;;5023941;28;20036;-81
2024/03/30 13:16:25;;;;;;;12.10;9.10;;;;;;;;;;5027039;28;20052;-81
2024/03/30 13:18:54;;;;;;;12.27;8.38;;;;;;;;;;5028222;28;20132;-81
2024/03/30 13:21:31;;;;;;;14.30;8.25;;;;;;;;;;5036425;28;20503;-80
2024/03/30 13:24:06;;;;;;;12.48;8.82;;;;;;;;;;5045448;28;20048;-81
2024/03/30 13:26:35;;;;;;;11.88;8.82;;;;;;;;;;5046912;28;20083;-80
2024/03/30 13:29:01;;;;;;;12.13;9.00;;;;;;;;;;5036549;28;20035;-80
2024/03/30 13:31:31;;;;;;;12.55;8.75;;;;;;;;;;5029762;28;20108;-81
2024/03/30 13:33:59;;;;;;;12.27;8.23;;;;;;;;;;5031809;28;20052;-80
2024/03/30 13:36:25;;;;;;;11.13;7.78;;;;;;;;;;5034195;28;20032;-81
2024/03/30 13:38:53;;;;;;;11.20;8.15;;;;;;;;;;5050818;28;20032;-80
2024/03/30 13:41:21;;;;;;;10.77;7.47;;;;;;;;;;5040707;28;20021;-80
2024/03/30 13:43:46;;;;;;;10.20;6.78;;;;;;;;;;5038303;28;20129;-81
2024/03/30 13:46:11;;;;;;;8.52;6.03;;;;;;;;;;5007947;28;20115;-80
2024/03/30 13:48:37;;;;;;;7.28;5.45;;;;;;;;;;5027908;28;20033;-81
2024/03/30 13:51:03;;;;;;;7.80;5.95;;;;;;;;;;5023756;28;20543;-81
2024/03/30 13:53:28;;;;;;;7.50;5.60;;;;;;;;;;5023727;28;20083;-81
2024/03/30 13:55:54;;;;;;;7.40;5.63;;;;;;;;;;5061687;28;20028;-82
2024/03/30 13:58:25;;;;;;;7.95;6.20;;;;;;;;;;5027885;28;20512;-82
2024/03/30 14:00:53;;;;;;;7.60;5.75;;;;;;;;;;5028648;28;20044;-81
2024/03/30 14:03:28;;;;;;;;;;;;;;;;;;;;;
2024/03/30 14:05:54;;;;;;;8.77;6.50;;;;;;;;;;5048095;28;20055;-82
2024/03/30 14:08:25;;;;;;;9.05;5.93;;;;;;;;;;5031009;28;20032;-81
2024/03/30 14:10:50;;;;;;;8.57;5.97;;;;;;;;;;5024036;28;20408;-81
2024/03/30 14:13:16;;;;;;;9.43;6.53;;;;;;;;;;5028930;28;20027;-81
2024/03/30 14:15:41;;;;;;;8.70;5.88;;;;;;;;;;5023744;28;20044;-82
2024/03/30 14:18:07;;;;;;;8.90;6.22;;;;;;;;;;5032290;28;20020;-81
2024/03/30 14:20:33;;;;;;;7.85;5.88;;;;;;;;;;5028090;28;20020;-81
2024/03/30 14:22:58;;;;;;;9.70;6.10;;;;;;;;;;5047132;28;20797;-81
2024/03/30 14:25:24;;;;;;;8.00;5.30;;;;;;;;;;5036904;28;20255;-82
2024/03/30 14:27:49;;;;;;;8.60;5.28;;;;;;;;;;5021037;28;20033;-81
2024/03/30 14:30:15;;;;;;;7.40;4.97;;;;;;;;;;5025332;28;20032;-82
2024/03/30 14:32:45;;;;;;;6.38;4.50;;;;;;;;;;5041748;28;20017;-81
2024/03/30 14:35:11;;;;;;;6.97;4.40;;;;;;;;;;5025064;28;20388;-81
2024/03/30 14:37:42;;;;;;;6.47;4.50;;;;;;;;;;5039016;28;20025;-82
2024/03/30 14:40:08;;;;;;;5.28;4.07;;;;;;;;;;5027353;28;20040;-81
2024/03/30 14:42:33;;;;;;;5.40;3.95;;;;;;;;;;5022311;28;20028;-81
2024/03/30 14:44:59;;;;;;;5.05;3.60;;;;;;;;;;5039124;28;20225;-80
2024/03/30 14:47:24;;;;;;;5.95;4.43;;;;;;;;;;5046518;28;20033;-81